Time;durP1;ratioP1;P1;durP2;ratioP2;P2;SDS_P1;SDS_P2;PMS_P1;PMS_P2;Temp;Humidity;BMP_temperature;BMP_pressure;BME280_temperature;BME280_humidity;BME280_pressure;Samples;Min_cycle;Max_cycle;Signal;HPM_P1;HPM_P2
2021/09/18 00:00:14;;;;;;;11.68;6.45;;;;;;;;;;4883412;29;20035;-91
2021/09/18 00:02:59;;;;;;;8.68;6.15;;;;;;;;;;4882846;29;20028;-91
2021/09/18 00:05:44;;;;;;;11.18;7.78;;;;;;;;;;4882557;29;20032;-90
2021/09/18 00:08:29;;;;;;;8.48;6.55;;;;;;;;;;4896165;29;20024;-91
2021/09/18 00:11:15;;;;;;;10.88;6.65;;;;;;;;;;4883275;29;20181;-91
2021/09/18 00:14:00;;;;;;;7.57;5.85;;;;;;;;;;4882541;29;20029;-92
2021/09/18 00:16:45;;;;;;;8.98;6.25;;;;;;;;;;4879210;29;20060;-92
2021/09/18 00:19:31;;;;;;;7.38;5.43;;;;;;;;;;4882672;29;20029;-92
2021/09/18 00:22:16;;;;;;;10.60;6.28;;;;;;;;;;4896129;29;20056;-92
2021/09/18 00:25:02;;;;;;;13.43;6.07;;;;;;;;;;4875621;29;20056;-91
2021/09/18 00:27:47;;;;;;;8.73;5.78;;;;;;;;;;4878139;29;20128;-92
2021/09/18 00:30:35;;;;;;;9.50;5.63;;;;;;;;;;4881852;29;20032;-92
2021/09/18 00:33:20;;;;;;;9.80;6.75;;;;;;;;;;4893314;29;20511;-90
2021/09/18 00:36:05;;;;;;;11.15;6.47;;;;;;;;;;4881980;29;20037;-90
2021/09/18 00:38:51;;;;;;;10.23;6.68;;;;;;;;;;4882091;29;20036;-89
2021/09/18 00:41:36;;;;;;;9.43;5.85;;;;;;;;;;4881198;29;20032;-90
2021/09/18 00:44:21;;;;;;;9.45;6.00;;;;;;;;;;4877372;29;20108;-90
2021/09/18 00:47:07;;;;;;;8.23;6.30;;;;;;;;;;4881916;29;20291;-89
2021/09/18 00:49:52;;;;;;;9.38;6.30;;;;;;;;;;4882531;29;20031;-90
2021/09/18 00:52:38;;;;;;;10.07;6.32;;;;;;;;;;4884337;29;20098;-90
2021/09/18 00:55:24;;;;;;;9.07;6.72;;;;;;;;;;4883008;29;20091;-92
2021/09/18 00:58:15;;;;;;;10.32;7.32;;;;;;;;;;4879052;29;20136;-92
2021/09/18 01:01:09;;;;;;;9.95;7.13;;;;;;;;;;4882357;29;20041;-92
2021/09/18 01:04:03;;;;;;;13.13;6.50;;;;;;;;;;4884664;29;20024;-92
2021/09/18 01:06:48;;;;;;;11.35;6.47;;;;;;;;;;4883910;29;20025;-91
2021/09/18 01:09:34;;;;;;;10.88;6.13;;;;;;;;;;4883309;29;20275;-93
2021/09/18 01:12:19;;;;;;;9.20;5.63;;;;;;;;;;4881862;29;20025;-91
2021/09/18 01:15:05;;;;;;;11.30;6.15;;;;;;;;;;4881963;29;20036;-91
2021/09/18 01:17:51;;;;;;;7.45;5.60;;;;;;;;;;4883723;29;20059;-91
2021/09/18 01:20:37;;;;;;;8.70;5.97;;;;;;;;;;4881119;29;20029;-92
2021/09/18 01:23:41;;;;;;;9.68;5.80;;;;;;;;;;4881020;29;20017;-92
2021/09/18 01:26:45;;;;;;;8.32;6.20;;;;;;;;;;4881755;29;20028;-92
2021/09/18 01:29:42;;;;;;;9.93;6.20;;;;;;;;;;4899219;29;20035;-92
2021/09/18 01:32:39;;;;;;;11.70;6.18;;;;;;;;;;4881678;29;20061;-93
2021/09/18 01:35:25;;;;;;;8.15;6.18;;;;;;;;;;4893195;29;20136;-89
2021/09/18 01:38:11;;;;;;;10.95;7.03;;;;;;;;;;4882552;29;20025;-89
2021/09/18 01:40:56;;;;;;;11.15;5.82;;;;;;;;;;4885642;29;20032;-89
2021/09/18 01:43:42;;;;;;;8.05;6.13;;;;;;;;;;4884329;29;20258;-89
2021/09/18 01:46:28;;;;;;;8.85;6.70;;;;;;;;;;4886490;29;20029;-89
2021/09/18 01:49:14;;;;;;;10.70;7.00;;;;;;;;;;4884393;29;20080;-89
2021/09/18 01:52:07;;;;;;;9.15;5.30;;;;;;;;;;4904808;29;20005;-91
2021/09/18 01:54:52;;;;;;;7.43;5.50;;;;;;;;;;4894714;29;20040;-92
2021/09/18 01:57:40;;;;;;;9.15;5.88;;;;;;;;;;4907968;29;20037;-93
2021/09/18 02:00:35;;;;;;;9.38;5.68;;;;;;;;;;4890684;29;20041;-92
2021/09/18 02:03:21;;;;;;;12.80;6.38;;;;;;;;;;4907228;29;20035;-92
2021/09/18 02:06:19;;;;;;;9.70;5.80;;;;;;;;;;4908226;29;20013;-93
2021/09/18 02:09:05;;;;;;;10.30;5.55;;;;;;;;;;4903461;29;20037;-92
2021/09/18 02:14:56;;;;;;;8.02;5.93;;;;;;;;;;4918349;29;20045;-92
2021/09/18 02:17:53;;;;;;;8.75;5.80;;;;;;;;;;4907202;29;20045;-93
2021/09/18 02:20:39;;;;;;;7.78;4.85;;;;;;;;;;4906293;29;20036;-92
2021/09/18 02:23:25;;;;;;;9.90;5.80;;;;;;;;;;4887991;29;20035;-92
2021/09/18 02:26:10;;;;;;;8.40;5.32;;;;;;;;;;4889859;29;20015;-91
2021/09/18 02:28:55;;;;;;;9.75;5.80;;;;;;;;;;4905684;29;20139;-91
2021/09/18 02:31:41;;;;;;;10.75;5.85;;;;;;;;;;4905072;29;20064;-91
2021/09/18 02:34:42;;;;;;;11.10;5.50;;;;;;;;;;4903802;29;20025;-93
2021/09/18 02:37:43;;;;;;;9.00;5.43;;;;;;;;;;4906655;29;20127;-93
2021/09/18 02:40:41;;;;;;;9.10;5.95;;;;;;;;;;4904322;29;20028;-91
2021/09/18 02:43:26;;;;;;;11.02;6.68;;;;;;;;;;4896978;29;20215;-91
2021/09/18 02:46:11;;;;;;;9.63;6.20;;;;;;;;;;4904601;29;20031;-90
2021/09/18 02:48:57;;;;;;;13.85;7.15;;;;;;;;;;4904411;29;20020;-91
2021/09/18 02:51:42;;;;;;;11.93;6.18;;;;;;;;;;4900049;29;20023;-90
2021/09/18 02:54:27;;;;;;;8.52;5.60;;;;;;;;;;4888869;29;20032;-91
2021/09/18 02:57:13;;;;;;;8.15;6.32;;;;;;;;;;4890760;29;20132;-91
2021/09/18 02:59:58;;;;;;;9.77;6.57;;;;;;;;;;4892144;29;20045;-91
2021/09/18 03:02:43;;;;;;;7.93;5.65;;;;;;;;;;4888108;29;20047;-91
2021/09/18 03:05:29;;;;;;;7.80;5.47;;;;;;;;;;4889621;29;20028;-90
2021/09/18 03:08:14;;;;;;;10.23;5.22;;;;;;;;;;4885631;29;20068;-91
2021/09/18 03:10:59;;;;;;;9.65;5.68;;;;;;;;;;4884658;29;20379;-92
2021/09/18 03:13:44;;;;;;;9.43;6.00;;;;;;;;;;4885398;29;20116;-91
2021/09/18 03:16:30;;;;;;;10.48;5.82;;;;;;;;;;4884361;29;20041;-92
2021/09/18 03:19:16;;;;;;;6.72;5.05;;;;;;;;;;4885845;29;20020;-91
2021/09/18 03:22:02;;;;;;;10.85;6.13;;;;;;;;;;4885648;29;20029;-92
2021/09/18 03:24:47;;;;;;;7.57;4.97;;;;;;;;;;4880280;29;20415;-91
2021/09/18 03:27:33;;;;;;;15.05;6.47;;;;;;;;;;4885596;29;20117;-92
2021/09/18 03:30:18;;;;;;;8.38;5.25;;;;;;;;;;4882322;29;20055;-92
2021/09/18 03:33:03;;;;;;;8.73;6.32;;;;;;;;;;4884389;29;20029;-91
2021/09/18 03:35:50;;;;;;;9.05;5.82;;;;;;;;;;4875391;29;20036;-90
2021/09/18 03:38:35;;;;;;;6.90;5.03;;;;;;;;;;4884792;29;20032;-91
2021/09/18 03:41:20;;;;;;;8.25;5.72;;;;;;;;;;4884956;29;20031;-91
2021/09/18 03:44:05;;;;;;;9.65;5.90;;;;;;;;;;4883500;29;20159;-91
2021/09/18 03:46:51;;;;;;;9.25;5.75;;;;;;;;;;4885969;29;20519;-90
2021/09/18 03:49:36;;;;;;;9.40;5.68;;;;;;;;;;4884043;29;20047;-90
2021/09/18 03:52:26;;;;;;;8.77;5.95;;;;;;;;;;4888346;29;20020;-90
2021/09/18 03:55:11;;;;;;;;;;;;;;;;;;4885474;29;20020;-91
2021/09/18 03:57:56;;;;;;;10.00;5.72;;;;;;;;;;4883300;29;20003;-92
2021/09/18 04:00:45;;;;;;;9.98;6.18;;;;;;;;;;4884193;29;20116;-93
2021/09/18 04:03:33;;;;;;;9.27;6.35;;;;;;;;;;4898436;29;20020;-92
2021/09/18 04:06:19;;;;;;;9.90;5.60;;;;;;;;;;4873209;29;20104;-92
2021/09/18 04:09:04;;;;;;;7.65;5.15;;;;;;;;;;4884489;29;20035;-92
2021/09/18 04:11:49;;;;;;;8.60;5.28;;;;;;;;;;4884219;29;20516;-91
2021/09/18 04:14:37;;;;;;;10.98;7.70;;;;;;;;;;4879123;29;20068;-91
2021/09/18 04:17:22;;;;;;;10.00;7.10;;;;;;;;;;4883709;29;20080;-92
2021/09/18 04:20:10;;;;;;;11.68;5.88;;;;;;;;;;4883170;29;20025;-90
2021/09/18 04:22:55;;;;;;;9.95;5.30;;;;;;;;;;4893175;29;20047;-91
2021/09/18 04:25:40;;;;;;;10.63;6.03;;;;;;;;;;4895332;29;20055;-91
2021/09/18 04:28:26;;;;;;;10.63;6.18;;;;;;;;;;4873120;29;20092;-91
2021/09/18 04:31:11;;;;;;;9.52;6.10;;;;;;;;;;4899103;29;20259;-89
2021/09/18 04:34:06;;;;;;;9.77;6.20;;;;;;;;;;4899339;29;20028;-91
2021/09/18 04:36:51;;;;;;;10.23;5.75;;;;;;;;;;4882352;29;20087;-90
2021/09/18 04:39:36;;;;;;;11.27;5.78;;;;;;;;;;4885723;29;20036;-91
2021/09/18 04:42:22;;;;;;;7.45;5.28;;;;;;;;;;4884881;29;20045;-92
2021/09/18 04:45:07;;;;;;;9.60;5.75;;;;;;;;;;4875448;29;20109;-90
2021/09/18 04:47:53;;;;;;;8.38;5.57;;;;;;;;;;4893735;29;20032;-91
2021/09/18 04:50:38;;;;;;;9.13;6.75;;;;;;;;;;4879861;29;20061;-91
2021/09/18 04:53:26;;;;;;;10.13;6.63;;;;;;;;;;4882370;29;20017;-90
2021/09/18 04:56:11;;;;;;;7.47;5.28;;;;;;;;;;4886218;29;20052;-91
2021/09/18 04:58:57;;;;;;;11.93;6.68;;;;;;;;;;4901888;29;20039;-91
2021/09/18 05:01:42;;;;;;;8.38;5.78;;;;;;;;;;4900291;29;20056;-91
2021/09/18 05:04:27;;;;;;;9.90;6.55;;;;;;;;;;4900306;29;20015;-91
2021/09/18 05:07:12;;;;;;;9.68;6.32;;;;;;;;;;4895710;29;20410;-90
2021/09/18 05:09:58;;;;;;;8.18;5.85;;;;;;;;;;4887503;29;20024;-90
2021/09/18 05:12:43;;;;;;;10.02;6.22;;;;;;;;;;4899401;29;20032;-90
2021/09/18 05:26:34;;;;;;;11.55;6.65;;;;;;;;;;4846059;29;20025;-89
2021/09/18 05:29:19;;;;;;;9.65;6.40;;;;;;;;;;4845250;29;20035;-91
2021/09/18 05:32:05;;;;;;;10.43;6.32;;;;;;;;;;4897100;29;20029;-90
2021/09/18 05:34:50;;;;;;;10.65;6.25;;;;;;;;;;4884619;29;20036;-91
2021/09/18 05:37:35;;;;;;;7.50;5.72;;;;;;;;;;4884134;29;20084;-91
2021/09/18 05:40:24;;;;;;;11.35;7.30;;;;;;;;;;4885788;29;20005;-90
2021/09/18 05:43:09;;;;;;;13.25;7.55;;;;;;;;;;4897739;29;20064;-90
2021/09/18 05:45:55;;;;;;;9.95;6.82;;;;;;;;;;4879159;29;20029;-91
2021/09/18 05:48:40;;;;;;;12.73;7.05;;;;;;;;;;4864229;29;20548;-90
2021/09/18 05:51:25;;;;;;;13.63;8.05;;;;;;;;;;4862320;29;20040;-92
2021/09/18 05:54:11;;;;;;;10.73;7.15;;;;;;;;;;4880999;29;20060;-90
2021/09/18 06:14:23;;;;;;;;;;;;;;;;;;;;;
2021/09/18 06:17:34;;;;;;;10.65;7.50;;;;;;;;;;4831178;29;20042;-93
2021/09/18 06:20:24;;;;;;;10.20;7.15;;;;;;;;;;4806456;29;20133;-93
2021/09/18 06:37:16;;;;;;;13.25;10.35;;;;;;;;;;4845305;29;20036;-94
2021/09/18 06:48:24;;;;;;;14.82;9.70;;;;;;;;;;5683147;23;20067;-88
2021/09/18 06:51:18;;;;;;;16.33;9.27;;;;;;;;;;4914947;29;20032;-89
2021/09/18 06:54:48;;;;;;;;;;;;;;;;;;;;;
2021/09/18 06:58:03;;;;;;;;;;;;;;;;;;;;;
2021/09/18 07:00:59;;;;;;;;;;;;;;;;;;;;;
2021/09/18 07:10:40;;;;;;;11.68;8.93;;;;;;;;;;4791726;29;20058;-91
2021/09/18 07:13:25;;;;;;;11.18;8.80;;;;;;;;;;4842227;29;20033;-86
2021/09/18 07:16:11;;;;;;;15.05;9.55;;;;;;;;;;4909015;29;20101;-89
2021/09/18 07:19:03;;;;;;;12.10;8.75;;;;;;;;;;4919980;29;20023;-91
2021/09/18 07:21:52;;;;;;;15.48;10.02;;;;;;;;;;4922213;29;20066;-89
2021/09/18 07:24:43;;;;;;;14.70;9.63;;;;;;;;;;4922840;29;20020;-91
2021/09/18 07:27:34;;;;;;;13.85;9.50;;;;;;;;;;4919480;29;20032;-90
2021/09/18 07:30:19;;;;;;;14.23;9.32;;;;;;;;;;4923626;29;20115;-91
2021/09/18 07:33:14;;;;;;;13.18;8.60;;;;;;;;;;4920760;29;20032;-92
2021/09/18 07:35:59;;;;;;;17.50;7.80;;;;;;;;;;4918744;29;20032;-91
2021/09/18 07:38:48;;;;;;;11.38;7.30;;;;;;;;;;4920864;29;20020;-90
2021/09/18 08:27:16;;;;;;;8.52;6.15;;;;;;;;;;4893028;29;20027;-93
2021/09/18 08:30:42;;;;;;;11.07;5.40;;;;;;;;;;4852851;29;20113;-94
2021/09/18 08:36:54;;;;;;;7.35;5.60;;;;;;;;;;4842814;29;20052;-95
2021/09/18 08:54:06;;;;;;;10.63;5.93;;;;;;;;;;5075656;23;20059;-94
2021/09/18 09:00:34;;;;;;;8.35;5.50;;;;;;;;;;4929017;29;20143;-82
2021/09/18 09:07:03;;;;;;;6.78;5.00;;;;;;;;;;4908307;29;20317;-86
2021/09/18 09:09:53;;;;;;;9.82;5.32;;;;;;;;;;4918007;28;20038;-87
2021/09/18 09:12:43;;;;;;;9.15;4.93;;;;;;;;;;4913554;29;20052;-87
2021/09/18 09:15:53;;;;;;;6.93;5.15;;;;;;;;;;4931857;29;20038;-91
2021/09/18 09:18:40;;;;;;;7.28;4.82;;;;;;;;;;4911550;29;20057;-92
2021/09/18 09:28:31;;;;;;;6.22;4.45;;;;;;;;;;4870090;29;20027;-92
2021/09/18 09:31:24;;;;;;;4.38;3.85;;;;;;;;;;4924878;29;20024;-91
2021/09/18 09:34:21;;;;;;;6.82;3.88;;;;;;;;;;4925103;29;20030;-95
2021/09/18 09:37:07;;;;;;;5.65;3.67;;;;;;;;;;4909897;29;20035;-90
2021/09/18 09:39:53;;;;;;;7.90;4.18;;;;;;;;;;4914988;29;20111;-90
2021/09/18 09:42:43;;;;;;;7.90;3.70;;;;;;;;;;4888422;29;20027;-92
2021/09/18 09:45:44;;;;;;;4.53;3.40;;;;;;;;;;4879905;29;20052;-92
2021/09/18 09:48:50;;;;;;;8.10;3.38;;;;;;;;;;4916582;29;20028;-93
2021/09/18 09:51:54;;;;;;;5.25;3.20;;;;;;;;;;4900970;29;20499;-92
2021/09/18 10:08:07;;;;;;;5.88;3.03;;;;;;;;;;4892662;29;20684;-90
2021/09/18 10:10:55;;;;;;;7.25;2.65;;;;;;;;;;4900333;29;20091;-90
2021/09/18 10:13:44;;;;;;;5.47;2.90;;;;;;;;;;4898040;29;20420;-90
2021/09/18 10:16:31;;;;;;;4.70;2.95;;;;;;;;;;4906523;29;20056;-89
2021/09/18 10:19:18;;;;;;;2.70;2.40;;;;;;;;;;4894674;29;20016;-89
2021/09/18 10:25:16;;;;;;;2.45;1.95;;;;;;;;;;4913463;29;20024;-91
2021/09/18 10:28:09;;;;;;;2.13;1.90;;;;;;;;;;4901031;29;20120;-86
2021/09/18 10:30:59;;;;;;;3.70;2.70;;;;;;;;;;4900743;29;20111;-87
2021/09/18 10:33:49;;;;;;;2.80;2.03;;;;;;;;;;4900705;29;20019;-87
2021/09/18 10:36:40;;;;;;;1.73;1.42;;;;;;;;;;4908948;29;20043;-89
2021/09/18 10:39:25;;;;;;;1.70;1.60;;;;;;;;;;4911770;29;20081;-90
2021/09/18 10:42:30;;;;;;;1.70;1.52;;;;;;;;;;4921445;29;20031;-89
2021/09/18 10:45:16;;;;;;;2.33;1.50;;;;;;;;;;4900334;29;20034;-89
2021/09/18 10:48:01;;;;;;;1.63;1.52;;;;;;;;;;4904356;29;20070;-90
2021/09/18 10:50:46;;;;;;;1.90;1.30;;;;;;;;;;4901810;29;20024;-89
2021/09/18 10:54:01;;;;;;;1.85;1.30;;;;;;;;;;4887920;29;20134;-89
2021/09/18 10:57:00;;;;;;;2.22;1.45;;;;;;;;;;4894772;29;20036;-89
2021/09/18 10:59:47;;;;;;;1.50;1.38;;;;;;;;;;4893547;29;20039;-90
2021/09/18 11:02:32;;;;;;;2.45;1.50;;;;;;;;;;4895033;29;20146;-89
2021/09/18 11:05:20;;;;;;;2.03;1.55;;;;;;;;;;4893416;29;20036;-89
2021/09/18 11:08:15;;;;;;;2.00;1.80;;;;;;;;;;4895537;29;20036;-88
2021/09/18 11:11:12;;;;;;;2.97;1.40;;;;;;;;;;4893556;29;20077;-86
2021/09/18 11:13:59;;;;;;;1.90;1.67;;;;;;;;;;4893820;29;20020;-88
2021/09/18 11:16:44;;;;;;;1.80;1.45;;;;;;;;;;4890454;29;20036;-88
2021/09/18 11:19:29;;;;;;;2.75;1.65;;;;;;;;;;4894022;29;20038;-89
2021/09/18 11:22:14;;;;;;;1.63;1.52;;;;;;;;;;4894550;29;20055;-88
2021/09/18 11:25:33;;;;;;;3.92;1.80;;;;;;;;;;4889667;29;20432;-89
2021/09/18 11:28:18;;;;;;;;;;;;;;;;;;4876509;29;20508;-88
2021/09/18 11:31:08;;;;;;;2.05;1.70;;;;;;;;;;4894332;29;21404;-87
2021/09/18 11:33:54;;;;;;;3.05;2.72;;;;;;;;;;4890358;29;20037;-87
2021/09/18 11:36:44;;;;;;;2.63;2.08;;;;;;;;;;4891429;29;20025;-86
2021/09/18 11:39:36;;;;;;;3.25;2.60;;;;;;;;;;4895050;29;20499;-86
2021/09/18 11:42:26;;;;;;;2.97;2.67;;;;;;;;;;4891343;29;20032;-86
2021/09/18 11:45:12;;;;;;;6.07;4.80;;;;;;;;;;4896050;29;20029;-87
2021/09/18 11:47:58;;;;;;;3.63;3.20;;;;;;;;;;4894011;29;20064;-87
2021/09/18 11:50:45;;;;;;;4.13;3.00;;;;;;;;;;4881607;29;20481;-87
2021/09/18 11:53:30;;;;;;;3.33;2.70;;;;;;;;;;4897885;29;20044;-88
2021/09/18 11:56:19;;;;;;;5.60;2.45;;;;;;;;;;4893152;29;20032;-87
2021/09/18 11:59:11;;;;;;;3.30;2.70;;;;;;;;;;4905902;29;20029;-87
2021/09/18 12:01:56;;;;;;;3.28;2.92;;;;;;;;;;4894792;29;20111;-88
2021/09/18 12:04:45;;;;;;;4.97;3.50;;;;;;;;;;4896471;29;20020;-88
2021/09/18 12:07:31;;;;;;;;;;;;;;;;;;4895166;29;20450;-89
2021/09/18 12:10:16;;;;;;;3.00;2.40;;;;;;;;;;4904237;29;19975;-88
2021/09/18 12:13:08;;;;;;;4.22;2.78;;;;;;;;;;4894387;29;20038;-89
2021/09/18 12:15:54;;;;;;;3.13;2.60;;;;;;;;;;4894539;29;20024;-88
2021/09/18 12:18:40;;;;;;;5.28;2.60;;;;;;;;;;4893110;29;20029;-88
2021/09/18 12:21:30;;;;;;;4.45;2.88;;;;;;;;;;4895727;29;20096;-89
2021/09/18 12:24:19;;;;;;;3.92;2.90;;;;;;;;;;4896086;29;20548;-90
2021/09/18 12:27:04;;;;;;;;;;;;;;;;;;4896427;29;20036;-90
2021/09/18 12:29:54;;;;;;;3.58;2.60;;;;;;;;;;4894847;29;19915;-90
2021/09/18 12:32:40;;;;;;;3.90;2.63;;;;;;;;;;4894398;29;20033;-88
2021/09/18 12:35:35;;;;;;;3.60;2.80;;;;;;;;;;4892470;29;20818;-89
2021/09/18 12:38:27;;;;;;;3.50;2.55;;;;;;;;;;4897322;29;20033;-90
2021/09/18 12:41:14;;;;;;;3.05;2.60;;;;;;;;;;4900472;29;20024;-90
2021/09/18 12:44:07;;;;;;;3.13;2.83;;;;;;;;;;4896227;29;20088;-84
2021/09/18 12:46:54;;;;;;;4.55;2.88;;;;;;;;;;4889955;29;20081;-90
2021/09/18 12:49:41;;;;;;;3.65;2.50;;;;;;;;;;4894625;29;20080;-90
2021/09/18 12:52:33;;;;;;;3.10;2.25;;;;;;;;;;4897731;29;20071;-89
2021/09/18 12:55:19;;;;;;;3.40;2.72;;;;;;;;;;4900376;29;20032;-89
2021/09/18 12:58:26;;;;;;;4.82;2.55;;;;;;;;;;4892486;29;20025;-89
2021/09/18 13:01:24;;;;;;;4.55;2.80;;;;;;;;;;4897651;29;20032;-92
2021/09/18 13:04:15;;;;;;;4.97;3.10;;;;;;;;;;4911420;29;20036;-89
2021/09/18 13:07:05;;;;;;;3.97;2.75;;;;;;;;;;4901554;29;20174;-90
2021/09/18 13:10:00;;;;;;;3.00;2.65;;;;;;;;;;4892931;29;20077;-89
2021/09/18 13:12:45;;;;;;;4.13;2.70;;;;;;;;;;4893715;29;20487;-80
2021/09/18 13:15:31;;;;;;;4.93;2.80;;;;;;;;;;4890267;29;20085;-80
2021/09/18 13:18:20;;;;;;;4.32;2.97;;;;;;;;;;4892055;29;20021;-80
2021/09/18 13:21:06;;;;;;;4.53;3.13;;;;;;;;;;4882866;29;20111;-80
2021/09/18 13:23:51;;;;;;;3.97;3.10;;;;;;;;;;4888100;29;20060;-80
2021/09/18 13:26:36;;;;;;;8.60;3.50;;;;;;;;;;4887429;29;20036;-80
2021/09/18 13:29:22;;;;;;;4.65;3.28;;;;;;;;;;4894080;29;20193;-80
2021/09/18 13:32:07;;;;;;;5.15;3.58;;;;;;;;;;4894378;29;20036;-80
2021/09/18 13:34:53;;;;;;;4.97;3.05;;;;;;;;;;4892781;29;20131;-80
2021/09/18 13:37:38;;;;;;;4.55;3.15;;;;;;;;;;4888049;29;20025;-80
2021/09/18 13:40:24;;;;;;;5.35;3.58;;;;;;;;;;4892893;29;20739;-80
2021/09/18 13:43:09;;;;;;;5.07;3.28;;;;;;;;;;4889350;29;20040;-80
2021/09/18 13:45:54;;;;;;;3.65;3.30;;;;;;;;;;4891762;29;20051;-81
2021/09/18 13:48:40;;;;;;;4.43;3.15;;;;;;;;;;4890222;29;20043;-80
2021/09/18 13:51:25;;;;;;;5.65;3.05;;;;;;;;;;4890007;29;20459;-80
2021/09/18 13:54:10;;;;;;;5.10;3.28;;;;;;;;;;4899704;29;20154;-81
2021/09/18 13:56:56;;;;;;;6.82;3.55;;;;;;;;;;4901399;29;20684;-80
2021/09/18 13:59:41;;;;;;;6.20;3.50;;;;;;;;;;4898342;29;20415;-80
2021/09/18 14:02:26;;;;;;;4.47;3.40;;;;;;;;;;4899390;29;20118;-81
2021/09/18 14:05:11;;;;;;;4.82;3.50;;;;;;;;;;4886002;29;20040;-83
2021/09/18 14:07:57;;;;;;;3.90;3.03;;;;;;;;;;4899101;29;20035;-82
2021/09/18 14:10:42;;;;;;;4.95;3.33;;;;;;;;;;4899104;29;20104;-82
2021/09/18 14:13:27;;;;;;;2.78;2.53;;;;;;;;;;4896358;29;20037;-81
2021/09/18 14:16:13;;;;;;;4.50;3.28;;;;;;;;;;4904652;29;20016;-82
2021/09/18 14:18:58;;;;;;;6.68;3.40;;;;;;;;;;4912699;29;20123;-82
2021/09/18 14:21:43;;;;;;;7.10;3.65;;;;;;;;;;4898624;29;20036;-82
2021/09/18 14:24:29;;;;;;;5.65;3.60;;;;;;;;;;4897707;29;20103;-77
2021/09/18 14:27:14;;;;;;;4.75;3.30;;;;;;;;;;4899124;29;20184;-81
2021/09/18 14:29:59;;;;;;;4.68;3.13;;;;;;;;;;4897684;29;20028;-81
2021/09/18 14:32:44;;;;;;;4.63;3.65;;;;;;;;;;4901202;29;20048;-81
2021/09/18 14:35:30;;;;;;;4.93;3.80;;;;;;;;;;4899855;29;20072;-81
2021/09/18 14:38:17;;;;;;;4.97;3.17;;;;;;;;;;4900126;29;20036;-80
2021/09/18 14:41:02;;;;;;;5.53;3.80;;;;;;;;;;4896906;29;20048;-80
2021/09/18 14:43:48;;;;;;;4.55;3.63;;;;;;;;;;4895501;29;20036;-80
2021/09/18 14:46:33;;;;;;;5.97;3.53;;;;;;;;;;4884696;29;20375;-81
2021/09/18 14:49:19;;;;;;;6.35;4.07;;;;;;;;;;4893002;29;20020;-81
2021/09/18 14:52:04;;;;;;;4.57;3.60;;;;;;;;;;4893869;29;20051;-81
2021/09/18 14:54:49;;;;;;;4.90;3.58;;;;;;;;;;4896102;29;20062;-81
2021/09/18 14:57:35;;;;;;;4.20;3.15;;;;;;;;;;4899753;29;20501;-81
2021/09/18 15:00:20;;;;;;;5.55;3.55;;;;;;;;;;4897541;29;20238;-81
2021/09/18 15:03:06;;;;;;;5.15;3.60;;;;;;;;;;4899376;29;20043;-80
2021/09/18 15:05:51;;;;;;;4.53;3.28;;;;;;;;;;4896561;29;20566;-80
2021/09/18 15:08:39;;;;;;;4.53;3.60;;;;;;;;;;4899023;29;20167;-81
2021/09/18 15:11:25;;;;;;;5.43;3.58;;;;;;;;;;4899312;29;20028;-81
2021/09/18 15:14:10;;;;;;;4.72;3.55;;;;;;;;;;4898476;29;20710;-81
2021/09/18 15:16:56;;;;;;;4.10;3.70;;;;;;;;;;4898907;29;20040;-81
2021/09/18 15:19:41;;;;;;;5.38;3.58;;;;;;;;;;4898009;29;20032;-81
2021/09/18 15:22:26;;;;;;;5.25;3.58;;;;;;;;;;4892104;29;20031;-81
2021/09/18 15:25:11;;;;;;;6.50;3.80;;;;;;;;;;4901866;29;20499;-81
2021/09/18 15:27:56;;;;;;;4.68;3.58;;;;;;;;;;4899297;29;20035;-81
2021/09/18 15:30:42;;;;;;;5.95;3.65;;;;;;;;;;4894498;29;20490;-81
2021/09/18 15:33:27;;;;;;;5.40;3.80;;;;;;;;;;4900870;29;20071;-81
2021/09/18 15:36:13;;;;;;;5.57;3.55;;;;;;;;;;4896409;29;20103;-80
2021/09/18 15:39:01;;;;;;;7.38;3.90;;;;;;;;;;4894586;29;20024;-81
2021/09/18 15:41:47;;;;;;;4.05;3.28;;;;;;;;;;4898217;29;20582;-81
2021/09/18 15:44:32;;;;;;;7.13;3.90;;;;;;;;;;4886470;29;20047;-81
2021/09/18 15:47:17;;;;;;;5.93;4.20;;;;;;;;;;4898580;29;20382;-81
2021/09/18 15:50:03;;;;;;;5.75;3.97;;;;;;;;;;4899170;29;20024;-82
2021/09/18 15:52:49;;;;;;;7.10;3.70;;;;;;;;;;4897239;29;20076;-82
2021/09/18 15:55:34;;;;;;;5.10;3.72;;;;;;;;;;4898243;29;20052;-81
2021/09/18 15:58:19;;;;;;;6.15;4.20;;;;;;;;;;4910851;29;20388;-82
2021/09/18 16:01:06;;;;;;;4.07;3.28;;;;;;;;;;4894175;29;20444;-81
2021/09/18 16:03:51;;;;;;;5.00;3.67;;;;;;;;;;4897661;29;20024;-81
2021/09/18 16:06:36;;;;;;;6.68;3.88;;;;;;;;;;4897656;29;20048;-82
2021/09/18 16:09:22;;;;;;;5.50;3.45;;;;;;;;;;4898026;29;20028;-82
2021/09/18 16:12:07;;;;;;;4.32;3.60;;;;;;;;;;4896992;29;20089;-81
2021/09/18 16:14:52;;;;;;;9.15;4.35;;;;;;;;;;4898500;29;20032;-80
2021/09/18 16:17:38;;;;;;;5.57;4.20;;;;;;;;;;4896522;29;20051;-81
2021/09/18 16:20:23;;;;;;;5.68;3.72;;;;;;;;;;4907198;29;20035;-83
2021/09/18 16:23:09;;;;;;;7.20;3.97;;;;;;;;;;4893964;29;20032;-83
2021/09/18 16:25:54;;;;;;;6.05;4.32;;;;;;;;;;4898321;29;20181;-80
2021/09/18 16:28:39;;;;;;;5.40;3.97;;;;;;;;;;4898480;29;20031;-81
2021/09/18 16:31:24;;;;;;;5.90;3.80;;;;;;;;;;4897873;29;20047;-81
2021/09/18 16:34:10;;;;;;;6.18;3.85;;;;;;;;;;4892793;29;20044;-89
2021/09/18 16:36:55;;;;;;;7.63;3.63;;;;;;;;;;4893846;29;20028;-91
2021/09/18 16:39:42;;;;;;;8.40;3.50;;;;;;;;;;4898783;29;20028;-87
2021/09/18 16:42:28;;;;;;;9.10;4.32;;;;;;;;;;4897469;29;20032;-88
2021/09/18 16:45:13;;;;;;;4.68;3.75;;;;;;;;;;4896411;29;20024;-88
2021/09/18 16:47:58;;;;;;;5.07;3.75;;;;;;;;;;4884282;29;20016;-90
2021/09/18 16:50:44;;;;;;;6.85;3.85;;;;;;;;;;4898900;29;20244;-88
2021/09/18 16:53:32;;;;;;;7.93;3.92;;;;;;;;;;4895696;29;20473;-90
2021/09/18 16:56:17;;;;;;;9.38;4.60;;;;;;;;;;4903708;29;20023;-91
2021/09/18 16:59:03;;;;;;;6.05;4.38;;;;;;;;;;4897268;29;20088;-91
2021/09/18 17:01:48;;;;;;;7.78;3.80;;;;;;;;;;4900383;29;20030;-91
2021/09/18 17:04:33;;;;;;;7.22;4.32;;;;;;;;;;4897580;29;20027;-91
2021/09/18 17:07:19;;;;;;;6.03;4.38;;;;;;;;;;4901617;29;20423;-91
2021/09/18 17:10:08;;;;;;;5.90;4.10;;;;;;;;;;4900144;29;20132;-90
2021/09/18 17:12:53;;;;;;;;;;;;;;;;;;4899068;29;20024;-89
2021/09/18 17:16:03;;;;;;;7.03;4.30;;;;;;;;;;4899788;29;20014;-93
2021/09/18 17:18:52;;;;;;;5.70;4.45;;;;;;;;;;4899670;29;20060;-92
2021/09/18 17:21:40;;;;;;;9.25;4.63;;;;;;;;;;4874394;29;20600;-89
2021/09/18 17:24:25;;;;;;;7.63;5.20;;;;;;;;;;4901832;29;20035;-88
2021/09/18 17:46:25;;;;;;;7.78;4.70;;;;;;;;;;5474384;23;20540;-91
2021/09/18 17:49:11;;;;;;;6.90;4.63;;;;;;;;;;4939208;28;20114;-90
2021/09/18 17:52:11;;;;;;;6.95;4.65;;;;;;;;;;4928923;29;20321;-93
2021/09/18 17:55:22;;;;;;;8.15;4.78;;;;;;;;;;4938077;28;20134;-91
2021/09/18 17:58:17;;;;;;;7.25;4.65;;;;;;;;;;4905115;29;20032;-91
2021/09/18 18:01:08;;;;;;;8.68;4.72;;;;;;;;;;4944258;28;20023;-92
2021/09/18 18:04:04;;;;;;;;;;;;;;;;;;;;;
2021/09/18 18:07:01;;;;;;;7.80;5.20;;;;;;;;;;4912240;29;20027;-92
2021/09/18 18:09:50;;;;;;;7.80;5.57;;;;;;;;;;4935684;28;20494;-90
2021/09/18 18:12:47;;;;;;;12.18;6.05;;;;;;;;;;4934808;28;20031;-91
2021/09/18 18:15:48;;;;;;;7.25;5.03;;;;;;;;;;4934824;29;20024;-92
2021/09/18 18:19:25;;;;;;;;;;;;;;;;;;;;;
2021/09/18 18:25:35;;;;;;;8.13;5.47;;;;;;;;;;4889018;29;20028;-91
2021/09/18 19:17:19;;;;;;;9.93;7.00;;;;;;;;;;4865050;29;20033;-92
2021/09/18 19:20:07;;;;;;;10.35;7.28;;;;;;;;;;4893929;29;20090;-91
2021/09/18 19:22:52;;;;;;;10.02;7.97;;;;;;;;;;4927334;29;20030;-92
2021/09/18 19:25:37;;;;;;;10.77;7.07;;;;;;;;;;4897590;29;20305;-91
2021/09/18 19:28:24;;;;;;;12.40;6.63;;;;;;;;;;4878710;29;20029;-89
2021/09/18 19:31:36;;;;;;;10.07;6.75;;;;;;;;;;4941117;29;20026;-93
2021/09/18 19:34:24;;;;;;;11.32;7.47;;;;;;;;;;4937107;29;20023;-92
2021/09/18 19:37:20;;;;;;;;;;;;;;;;;;;;;
2021/09/18 19:40:06;;;;;;;9.48;6.95;;;;;;;;;;4937455;29;20146;-91
2021/09/18 19:42:51;;;;;;;11.15;7.20;;;;;;;;;;4925494;29;20028;-90
2021/09/18 19:45:37;;;;;;;12.90;7.20;;;;;;;;;;4919388;29;20042;-90
2021/09/18 19:48:22;;;;;;;10.80;7.43;;;;;;;;;;4917383;29;20031;-89
2021/09/18 19:51:07;;;;;;;10.85;7.63;;;;;;;;;;4917856;29;20083;-90
2021/09/18 19:53:52;;;;;;;11.95;7.95;;;;;;;;;;4923553;29;20447;-90
2021/09/18 19:56:38;;;;;;;13.48;7.95;;;;;;;;;;4927124;29;20025;-89
2021/09/18 19:59:26;;;;;;;9.13;7.28;;;;;;;;;;4934728;29;20034;-92
2021/09/18 20:02:12;;;;;;;11.40;7.95;;;;;;;;;;4930924;29;20031;-91
2021/09/18 20:05:00;;;;;;;10.43;7.80;;;;;;;;;;4930974;29;20030;-91
2021/09/18 20:07:45;;;;;;;11.00;7.80;;;;;;;;;;4915755;29;20035;-88
2021/09/18 20:10:31;;;;;;;12.07;9.40;;;;;;;;;;4939788;29;20019;-89
2021/09/18 20:13:16;;;;;;;10.95;8.10;;;;;;;;;;4933138;29;20044;-91
2021/09/18 20:16:11;;;;;;;11.88;8.50;;;;;;;;;;4931198;29;20031;-93
2021/09/18 20:19:18;;;;;;;10.55;7.63;;;;;;;;;;4923449;29;20338;-91
2021/09/18 20:22:10;;;;;;;10.40;7.70;;;;;;;;;;4913302;29;20034;-93
2021/09/18 22:11:40;;;;;;;14.02;11.23;;;;;;;;;;5993619;23;20053;-90
2021/09/18 22:14:26;;;;;;;14.98;12.10;;;;;;;;;;4938324;29;20066;-90
2021/09/18 22:17:14;;;;;;;14.13;11.60;;;;;;;;;;4934416;29;20046;-89
2021/09/18 22:20:12;;;;;;;;;;;;;;;;;;;;;
2021/09/18 22:22:58;;;;;;;17.15;12.38;;;;;;;;;;4928896;29;20110;-91
2021/09/18 22:25:43;;;;;;;13.80;10.30;;;;;;;;;;4926067;29;20056;-93
2021/09/18 22:28:29;;;;;;;15.85;13.32;;;;;;;;;;4937824;29;20028;-92